sensor_id;sensor_type;location;lat;lon;timestamp;temperature;humidity
15937;DHT22;9163;48.818;8.976;2023-09-07T00:02:00;16.80;34.20
15937;DHT22;9163;48.818;8.976;2023-09-07T00:04:28;16.80;35.00
15937;DHT22;9163;48.818;8.976;2023-09-07T00:06:55;16.70;36.60
15937;DHT22;9163;48.818;8.976;2023-09-07T00:09:22;16.70;39.60
15937;DHT22;9163;48.818;8.976;2023-09-07T00:11:51;16.70;41.50
15937;DHT22;9163;48.818;8.976;2023-09-07T00:14:18;16.70;40.30
15937;DHT22;9163;48.818;8.976;2023-09-07T00:16:45;16.70;41.50
15937;DHT22;9163;48.818;8.976;2023-09-07T00:19:13;16.70;46.10
15937;DHT22;9163;48.818;8.976;2023-09-07T00:21:40;16.70;47.10
15937;DHT22;9163;48.818;8.976;2023-09-07T00:24:07;16.70;49.20
15937;DHT22;9163;48.818;8.976;2023-09-07T00:26:36;16.70;50.70
15937;DHT22;9163;48.818;8.976;2023-09-07T00:29:04;16.70;52.60
15937;DHT22;9163;48.818;8.976;2023-09-07T00:31:32;16.60;62.10
15937;DHT22;9163;48.818;8.976;2023-09-07T00:33:59;16.50;74.70
15937;DHT22;9163;48.818;8.976;2023-09-07T00:36:26;16.50;79.30
15937;DHT22;9163;48.818;8.976;2023-09-07T00:38:53;16.40;80.60
15937;DHT22;9163;48.818;8.976;2023-09-07T00:41:21;16.40;85.00
15937;DHT22;9163;48.818;8.976;2023-09-07T00:43:48;16.40;89.40
15937;DHT22;9163;48.818;8.976;2023-09-07T00:46:16;16.50;79.10
15937;DHT22;9163;48.818;8.976;2023-09-07T00:48:44;16.50;84.10
15937;DHT22;9163;48.818;8.976;2023-09-07T00:51:11;16.30;90.20
15937;DHT22;9163;48.818;8.976;2023-09-07T00:53:38;16.20;93.70
15937;DHT22;9163;48.818;8.976;2023-09-07T00:56:07;16.10;98.80
15937;DHT22;9163;48.818;8.976;2023-09-07T00:58:34;16.10;96.10
15937;DHT22;9163;48.818;8.976;2023-09-07T01:01:01;16.10;97.00
15937;DHT22;9163;48.818;8.976;2023-09-07T01:03:30;16.20;93.20
15937;DHT22;9163;48.818;8.976;2023-09-07T01:06:01;16.20;91.80
15937;DHT22;9163;48.818;8.976;2023-09-07T01:08:32;16.10;93.50
15937;DHT22;9163;48.818;8.976;2023-09-07T01:11:12;16.10;94.30
15937;DHT22;9163;48.818;8.976;2023-09-07T01:13:40;16.00;96.50
15937;DHT22;9163;48.818;8.976;2023-09-07T01:16:34;16.00;99.90
15937;DHT22;9163;48.818;8.976;2023-09-07T01:19:04;15.90;99.90
15937;DHT22;9163;48.818;8.976;2023-09-07T01:21:34;15.80;99.90
15937;DHT22;9163;48.818;8.976;2023-09-07T01:24:03;15.80;99.90
15937;DHT22;9163;48.818;8.976;2023-09-07T01:26:31;15.70;99.90
15937;DHT22;9163;48.818;8.976;2023-09-07T01:28:58;15.60;99.90
15937;DHT22;9163;48.818;8.976;2023-09-07T01:31:26;15.60;99.90
15937;DHT22;9163;48.818;8.976;2023-09-07T01:33:53;15.60;99.90
15937;DHT22;9163;48.818;8.976;2023-09-07T01:36:20;15.50;99.90
15937;DHT22;9163;48.818;8.976;2023-09-07T01:38:48;15.40;99.90
15937;DHT22;9163;48.818;8.976;2023-09-07T01:41:16;15.40;99.90
15937;DHT22;9163;48.818;8.976;2023-09-07T01:43:43;15.50;99.90
15937;DHT22;9163;48.818;8.976;2023-09-07T01:46:10;15.50;99.90
15937;DHT22;9163;48.818;8.976;2023-09-07T01:48:37;15.50;99.90
15937;DHT22;9163;48.818;8.976;2023-09-07T01:51:05;15.40;99.90
15937;DHT22;9163;48.818;8.976;2023-09-07T01:53:32;15.40;99.90
15937;DHT22;9163;48.818;8.976;2023-09-07T01:56:00;15.30;99.90
15937;DHT22;9163;48.818;8.976;2023-09-07T01:58:28;15.20;99.90
15937;DHT22;9163;48.818;8.976;2023-09-07T02:00:57;15.20;99.90
15937;DHT22;9163;48.818;8.976;2023-09-07T02:03:24;15.10;99.90
15937;DHT22;9163;48.818;8.976;2023-09-07T02:05:52;15.10;99.90
15937;DHT22;9163;48.818;8.976;2023-09-07T02:08:19;15.10;99.90
15937;DHT22;9163;48.818;8.976;2023-09-07T02:10:47;15.10;99.90
15937;DHT22;9163;48.818;8.976;2023-09-07T02:13:15;15.10;99.90
15937;DHT22;9163;48.818;8.976;2023-09-07T02:15:43;15.00;99.90
15937;DHT22;9163;48.818;8.976;2023-09-07T02:18:10;14.90;99.90
15937;DHT22;9163;48.818;8.976;2023-09-07T02:20:37;14.90;99.90
15937;DHT22;9163;48.818;8.976;2023-09-07T02:23:04;14.80;99.90
15937;DHT22;9163;48.818;8.976;2023-09-07T02:25:32;14.80;99.90
15937;DHT22;9163;48.818;8.976;2023-09-07T02:28:00;14.80;99.90
15937;DHT22;9163;48.818;8.976;2023-09-07T02:30:29;14.80;99.90
15937;DHT22;9163;48.818;8.976;2023-09-07T02:32:56;14.80;99.90
15937;DHT22;9163;48.818;8.976;2023-09-07T02:35:23;14.80;99.90
15937;DHT22;9163;48.818;8.976;2023-09-07T02:37:50;14.70;99.90
15937;DHT22;9163;48.818;8.976;2023-09-07T02:40:18;14.70;99.90
15937;DHT22;9163;48.818;8.976;2023-09-07T02:42:45;14.60;99.90
15937;DHT22;9163;48.818;8.976;2023-09-07T02:45:12;14.60;99.90
15937;DHT22;9163;48.818;8.976;2023-09-07T02:47:41;14.60;99.90
15937;DHT22;9163;48.818;8.976;2023-09-07T02:50:08;14.60;99.90
15937;DHT22;9163;48.818;8.976;2023-09-07T02:52:36;14.60;99.90
15937;DHT22;9163;48.818;8.976;2023-09-07T02:55:04;14.50;99.90
15937;DHT22;9163;48.818;8.976;2023-09-07T02:57:32;14.50;99.90
15937;DHT22;9163;48.818;8.976;2023-09-07T02:59:59;14.50;99.90
15937;DHT22;9163;48.818;8.976;2023-09-07T03:02:27;14.40;99.90
15937;DHT22;9163;48.818;8.976;2023-09-07T03:04:56;14.40;99.90
15937;DHT22;9163;48.818;8.976;2023-09-07T03:07:24;14.30;99.90
15937;DHT22;9163;48.818;8.976;2023-09-07T03:09:52;14.30;99.90
15937;DHT22;9163;48.818;8.976;2023-09-07T03:12:19;14.20;99.90
15937;DHT22;9163;48.818;8.976;2023-09-07T03:14:46;14.20;99.90
15937;DHT22;9163;48.818;8.976;2023-09-07T03:17:14;14.30;99.90
15937;DHT22;9163;48.818;8.976;2023-09-07T03:19:42;14.30;99.90
15937;DHT22;9163;48.818;8.976;2023-09-07T03:22:11;14.20;99.90
15937;DHT22;9163;48.818;8.976;2023-09-07T03:24:38;14.20;99.90
15937;DHT22;9163;48.818;8.976;2023-09-07T03:27:05;14.20;99.90
15937;DHT22;9163;48.818;8.976;2023-09-07T03:29:33;14.20;99.90
15937;DHT22;9163;48.818;8.976;2023-09-07T03:32:01;14.30;99.90
15937;DHT22;9163;48.818;8.976;2023-09-07T03:34:28;14.30;99.90
15937;DHT22;9163;48.818;8.976;2023-09-07T03:36:55;14.50;99.90
15937;DHT22;9163;48.818;8.976;2023-09-07T03:39:24;14.60;99.90
15937;DHT22;9163;48.818;8.976;2023-09-07T03:41:52;14.60;99.90
15937;DHT22;9163;48.818;8.976;2023-09-07T03:44:19;14.70;99.90
15937;DHT22;9163;48.818;8.976;2023-09-07T03:46:46;14.60;99.90
15937;DHT22;9163;48.818;8.976;2023-09-07T03:49:13;14.50;99.90
15937;DHT22;9163;48.818;8.976;2023-09-07T03:51:40;14.50;99.90
15937;DHT22;9163;48.818;8.976;2023-09-07T03:54:08;14.40;99.90
15937;DHT22;9163;48.818;8.976;2023-09-07T03:56:36;14.40;99.90
15937;DHT22;9163;48.818;8.976;2023-09-07T03:59:05;14.30;99.90
15937;DHT22;9163;48.818;8.976;2023-09-07T04:01:32;14.30;99.90
15937;DHT22;9163;48.818;8.976;2023-09-07T04:04:00;14.30;99.90
15937;DHT22;9163;48.818;8.976;2023-09-07T04:06:27;14.30;99.90
15937;DHT22;9163;48.818;8.976;2023-09-07T04:08:54;14.40;99.90
15937;DHT22;9163;48.818;8.976;2023-09-07T04:11:21;14.30;99.90
15937;DHT22;9163;48.818;8.976;2023-09-07T04:13:50;14.30;99.90
15937;DHT22;9163;48.818;8.976;2023-09-07T04:16:17;14.20;99.90
15937;DHT22;9163;48.818;8.976;2023-09-07T04:18:44;14.10;99.90
15937;DHT22;9163;48.818;8.976;2023-09-07T04:21:11;14.10;99.90
15937;DHT22;9163;48.818;8.976;2023-09-07T04:23:39;14.10;99.90
15937;DHT22;9163;48.818;8.976;2023-09-07T04:26:07;14.00;99.90
15937;DHT22;9163;48.818;8.976;2023-09-07T04:28:35;13.90;99.90
15937;DHT22;9163;48.818;8.976;2023-09-07T04:31:04;13.90;99.90
15937;DHT22;9163;48.818;8.976;2023-09-07T04:33:32;13.90;99.90
15937;DHT22;9163;48.818;8.976;2023-09-07T04:36:07;13.80;99.90
15937;DHT22;9163;48.818;8.976;2023-09-07T04:38:35;13.80;99.90
15937;DHT22;9163;48.818;8.976;2023-09-07T04:41:06;13.70;99.90
15937;DHT22;9163;48.818;8.976;2023-09-07T04:43:33;13.60;99.90
15937;DHT22;9163;48.818;8.976;2023-09-07T04:46:02;13.60;99.90
15937;DHT22;9163;48.818;8.976;2023-09-07T04:48:29;13.60;99.90
15937;DHT22;9163;48.818;8.976;2023-09-07T04:51:00;13.60;99.90
15937;DHT22;9163;48.818;8.976;2023-09-07T04:53:28;13.60;99.90
15937;DHT22;9163;48.818;8.976;2023-09-07T04:55:56;13.60;99.90
15937;DHT22;9163;48.818;8.976;2023-09-07T04:58:24;13.60;99.90
15937;DHT22;9163;48.818;8.976;2023-09-07T05:00:51;13.70;99.90
15937;DHT22;9163;48.818;8.976;2023-09-07T05:03:20;13.70;99.90
15937;DHT22;9163;48.818;8.976;2023-09-07T05:05:52;13.70;99.90
15937;DHT22;9163;48.818;8.976;2023-09-07T05:08:19;13.70;99.90
15937;DHT22;9163;48.818;8.976;2023-09-07T05:10:48;13.80;99.90
15937;DHT22;9163;48.818;8.976;2023-09-07T05:13:15;13.80;99.90
15937;DHT22;9163;48.818;8.976;2023-09-07T05:15:47;13.90;99.90
15937;DHT22;9163;48.818;8.976;2023-09-07T05:18:15;13.90;99.90
15937;DHT22;9163;48.818;8.976;2023-09-07T05:20:43;14.00;99.90
15937;DHT22;9163;48.818;8.976;2023-09-07T05:23:12;14.10;99.90
15937;DHT22;9163;48.818;8.976;2023-09-07T05:25:44;14.10;99.90
15937;DHT22;9163;48.818;8.976;2023-09-07T05:28:13;14.10;99.90
15937;DHT22;9163;48.818;8.976;2023-09-07T05:30:41;14.10;99.90
15937;DHT22;9163;48.818;8.976;2023-09-07T05:33:09;14.20;99.90
15937;DHT22;9163;48.818;8.976;2023-09-07T05:35:36;14.20;99.90
15937;DHT22;9163;48.818;8.976;2023-09-07T05:38:05;14.30;99.90
15937;DHT22;9163;48.818;8.976;2023-09-07T05:40:33;14.40;99.90
15937;DHT22;9163;48.818;8.976;2023-09-07T05:43:01;14.40;99.90
15937;DHT22;9163;48.818;8.976;2023-09-07T05:45:29;14.50;99.90
15937;DHT22;9163;48.818;8.976;2023-09-07T05:47:57;14.60;99.90
15937;DHT22;9163;48.818;8.976;2023-09-07T05:50:24;14.60;99.90
15937;DHT22;9163;48.818;8.976;2023-09-07T05:52:52;14.70;99.90
15937;DHT22;9163;48.818;8.976;2023-09-07T05:55:20;14.60;99.90
15937;DHT22;9163;48.818;8.976;2023-09-07T05:57:49;14.70;99.90
15937;DHT22;9163;48.818;8.976;2023-09-07T06:00:16;14.80;99.90
15937;DHT22;9163;48.818;8.976;2023-09-07T06:02:45;14.90;99.90
15937;DHT22;9163;48.818;8.976;2023-09-07T06:05:13;15.10;99.90
15937;DHT22;9163;48.818;8.976;2023-09-07T06:07:40;15.30;99.90
15937;DHT22;9163;48.818;8.976;2023-09-07T06:10:08;15.50;99.90
15937;DHT22;9163;48.818;8.976;2023-09-07T06:12:36;15.70;99.90
15937;DHT22;9163;48.818;8.976;2023-09-07T06:15:04;15.80;99.90
15937;DHT22;9163;48.818;8.976;2023-09-07T06:17:32;15.90;99.90
15937;DHT22;9163;48.818;8.976;2023-09-07T06:19:59;16.10;99.90
15937;DHT22;9163;48.818;8.976;2023-09-07T06:22:26;16.30;99.90
15937;DHT22;9163;48.818;8.976;2023-09-07T06:24:53;16.40;99.90
15937;DHT22;9163;48.818;8.976;2023-09-07T06:27:21;16.40;99.90
15937;DHT22;9163;48.818;8.976;2023-09-07T06:29:50;16.50;99.90
15937;DHT22;9163;48.818;8.976;2023-09-07T06:32:18;16.70;99.90
15937;DHT22;9163;48.818;8.976;2023-09-07T06:34:45;16.80;99.90
15937;DHT22;9163;48.818;8.976;2023-09-07T06:37:13;17.00;99.90
15937;DHT22;9163;48.818;8.976;2023-09-07T06:39:40;17.10;99.90
15937;DHT22;9163;48.818;8.976;2023-09-07T06:42:09;17.30;99.90
15937;DHT22;9163;48.818;8.976;2023-09-07T06:44:36;17.40;99.90
15937;DHT22;9163;48.818;8.976;2023-09-07T06:47:05;17.40;99.90
15937;DHT22;9163;48.818;8.976;2023-09-07T06:49:33;17.50;99.90
15937;DHT22;9163;48.818;8.976;2023-09-07T06:52:00;17.70;99.90
15937;DHT22;9163;48.818;8.976;2023-09-07T06:54:28;17.90;99.90
15937;DHT22;9163;48.818;8.976;2023-09-07T06:56:55;18.20;97.50
15937;DHT22;9163;48.818;8.976;2023-09-07T06:59:23;18.30;94.80
15937;DHT22;9163;48.818;8.976;2023-09-07T07:01:50;18.50;78.50
15937;DHT22;9163;48.818;8.976;2023-09-07T07:04:19;18.80;83.60
15937;DHT22;9163;48.818;8.976;2023-09-07T07:06:46;18.90;84.10
15937;DHT22;9163;48.818;8.976;2023-09-07T07:09:13;19.10;72.20
15937;DHT22;9163;48.818;8.976;2023-09-07T07:11:40;19.20;68.60
15937;DHT22;9163;48.818;8.976;2023-09-07T07:14:09;19.40;42.00
15937;DHT22;9163;48.818;8.976;2023-09-07T07:16:37;19.50;36.90
15937;DHT22;9163;48.818;8.976;2023-09-07T07:19:04;19.60;45.60
15937;DHT22;9163;48.818;8.976;2023-09-07T07:21:33;19.80;38.20
15937;DHT22;9163;48.818;8.976;2023-09-07T07:24:00;19.80;31.90
15937;DHT22;9163;48.818;8.976;2023-09-07T07:26:27;19.90;35.80
15937;DHT22;9163;48.818;8.976;2023-09-07T07:28:54;19.90;24.40
15937;DHT22;9163;48.818;8.976;2023-09-07T07:31:22;20.30;19.60
15937;DHT22;9163;48.818;8.976;2023-09-07T07:33:49;20.50;14.70
15937;DHT22;9163;48.818;8.976;2023-09-07T07:36:16;20.80;10.00
15937;DHT22;9163;48.818;8.976;2023-09-07T07:38:45;20.90;14.40
15937;DHT22;9163;48.818;8.976;2023-09-07T07:41:12;21.00;1.00
15937;DHT22;9163;48.818;8.976;2023-09-07T07:43:40;21.20;1.00
15937;DHT22;9163;48.818;8.976;2023-09-07T07:46:08;21.30;1.00
15937;DHT22;9163;48.818;8.976;2023-09-07T07:48:35;21.50;1.00
15937;DHT22;9163;48.818;8.976;2023-09-07T07:51:03;21.40;1.00
15937;DHT22;9163;48.818;8.976;2023-09-07T07:53:31;21.40;1.00
15937;DHT22;9163;48.818;8.976;2023-09-07T07:56:00;21.80;1.00
15937;DHT22;9163;48.818;8.976;2023-09-07T07:58:29;22.00;1.00
15937;DHT22;9163;48.818;8.976;2023-09-07T08:00:56;21.90;1.00
15937;DHT22;9163;48.818;8.976;2023-09-07T08:03:24;22.10;1.00
15937;DHT22;9163;48.818;8.976;2023-09-07T08:05:52;21.90;1.00
15937;DHT22;9163;48.818;8.976;2023-09-07T08:08:19;21.90;1.00
15937;DHT22;9163;48.818;8.976;2023-09-07T08:10:46;22.30;1.00
15937;DHT22;9163;48.818;8.976;2023-09-07T08:13:15;22.50;1.00
15937;DHT22;9163;48.818;8.976;2023-09-07T08:15:42;22.60;1.00
15937;DHT22;9163;48.818;8.976;2023-09-07T08:18:09;22.60;1.00
15937;DHT22;9163;48.818;8.976;2023-09-07T08:20:37;23.10;1.00
15937;DHT22;9163;48.818;8.976;2023-09-07T08:23:06;23.30;1.00
15937;DHT22;9163;48.818;8.976;2023-09-07T08:25:36;23.10;1.00
15937;DHT22;9163;48.818;8.976;2023-09-07T08:28:05;23.10;1.00
15937;DHT22;9163;48.818;8.976;2023-09-07T08:30:34;23.40;1.00
15937;DHT22;9163;48.818;8.976;2023-09-07T08:33:03;23.90;1.00
15937;DHT22;9163;48.818;8.976;2023-09-07T08:35:32;23.90;1.00
15937;DHT22;9163;48.818;8.976;2023-09-07T08:38:01;24.10;1.00
15937;DHT22;9163;48.818;8.976;2023-09-07T08:40:31;24.60;1.00
15937;DHT22;9163;48.818;8.976;2023-09-07T08:43:03;25.20;1.00
15937;DHT22;9163;48.818;8.976;2023-09-07T08:45:51;24.90;1.00
15937;DHT22;9163;48.818;8.976;2023-09-07T08:48:19;24.80;1.00
15937;DHT22;9163;48.818;8.976;2023-09-07T08:50:47;25.00;1.00
15937;DHT22;9163;48.818;8.976;2023-09-07T08:53:18;25.10;1.00
15937;DHT22;9163;48.818;8.976;2023-09-07T08:55:45;24.90;1.00
15937;DHT22;9163;48.818;8.976;2023-09-07T08:58:13;25.60;1.00
15937;DHT22;9163;48.818;8.976;2023-09-07T09:00:42;25.80;1.00
15937;DHT22;9163;48.818;8.976;2023-09-07T09:03:10;26.00;1.00
15937;DHT22;9163;48.818;8.976;2023-09-07T09:05:39;26.30;1.00
15937;DHT22;9163;48.818;8.976;2023-09-07T09:08:07;26.70;1.00
15937;DHT22;9163;48.818;8.976;2023-09-07T09:10:37;27.00;1.00
15937;DHT22;9163;48.818;8.976;2023-09-07T09:13:04;26.90;1.00
15937;DHT22;9163;48.818;8.976;2023-09-07T09:15:31;26.70;1.00
15937;DHT22;9163;48.818;8.976;2023-09-07T09:18:09;26.40;1.00
15937;DHT22;9163;48.818;8.976;2023-09-07T09:20:38;26.40;1.00
15937;DHT22;9163;48.818;8.976;2023-09-07T09:23:05;26.30;1.00
15937;DHT22;9163;48.818;8.976;2023-09-07T09:25:33;26.40;1.00
15937;DHT22;9163;48.818;8.976;2023-09-07T09:28:00;27.10;1.00
15937;DHT22;9163;48.818;8.976;2023-09-07T09:30:27;27.80;1.00
15937;DHT22;9163;48.818;8.976;2023-09-07T09:32:54;28.00;1.00
15937;DHT22;9163;48.818;8.976;2023-09-07T09:35:23;27.90;1.00
15937;DHT22;9163;48.818;8.976;2023-09-07T09:37:50;28.20;1.00
15937;DHT22;9163;48.818;8.976;2023-09-07T09:40:18;28.30;1.00
15937;DHT22;9163;48.818;8.976;2023-09-07T09:42:45;28.00;1.00
15937;DHT22;9163;48.818;8.976;2023-09-07T09:45:12;28.30;1.00
15937;DHT22;9163;48.818;8.976;2023-09-07T09:47:41;28.80;1.00
15937;DHT22;9163;48.818;8.976;2023-09-07T09:50:10;29.20;1.00
15937;DHT22;9163;48.818;8.976;2023-09-07T09:52:39;29.60;1.00
15937;DHT22;9163;48.818;8.976;2023-09-07T09:55:07;29.50;1.00
15937;DHT22;9163;48.818;8.976;2023-09-07T09:57:38;29.20;1.00
15937;DHT22;9163;48.818;8.976;2023-09-07T10:00:07;29.30;1.00
15937;DHT22;9163;48.818;8.976;2023-09-07T10:02:48;29.80;1.00
15937;DHT22;9163;48.818;8.976;2023-09-07T10:05:17;30.30;1.00
15937;DHT22;9163;48.818;8.976;2023-09-07T10:07:49;30.90;1.00
15937;DHT22;9163;48.818;8.976;2023-09-07T10:10:19;31.10;1.00
15937;DHT22;9163;48.818;8.976;2023-09-07T10:12:53;31.00;1.00
15937;DHT22;9163;48.818;8.976;2023-09-07T10:15:22;31.30;1.00
15937;DHT22;9163;48.818;8.976;2023-09-07T10:17:49;31.30;1.00
15937;DHT22;9163;48.818;8.976;2023-09-07T10:20:19;31.70;99.90
15937;DHT22;9163;48.818;8.976;2023-09-07T10:23:02;31.90;99.90
15937;DHT22;9163;48.818;8.976;2023-09-07T10:25:30;32.20;99.90
15937;DHT22;9163;48.818;8.976;2023-09-07T10:27:58;32.50;99.90
15937;DHT22;9163;48.818;8.976;2023-09-07T10:30:26;32.50;99.90
15937;DHT22;9163;48.818;8.976;2023-09-07T10:32:54;33.00;99.90
15937;DHT22;9163;48.818;8.976;2023-09-07T10:35:21;32.70;99.90
15937;DHT22;9163;48.818;8.976;2023-09-07T10:37:51;33.10;99.90
15937;DHT22;9163;48.818;8.976;2023-09-07T10:40:19;33.10;99.90
15937;DHT22;9163;48.818;8.976;2023-09-07T10:42:47;33.40;99.90
15937;DHT22;9163;48.818;8.976;2023-09-07T10:45:15;33.50;99.90
15937;DHT22;9163;48.818;8.976;2023-09-07T10:47:43;33.50;99.90
15937;DHT22;9163;48.818;8.976;2023-09-07T10:50:12;33.60;99.90
15937;DHT22;9163;48.818;8.976;2023-09-07T10:52:40;33.30;99.90
15937;DHT22;9163;48.818;8.976;2023-09-07T10:55:10;33.70;99.90
15937;DHT22;9163;48.818;8.976;2023-09-07T10:57:41;33.50;99.90
15937;DHT22;9163;48.818;8.976;2023-09-07T11:00:11;33.90;99.90
15937;DHT22;9163;48.818;8.976;2023-09-07T11:02:40;34.00;99.90
15937;DHT22;9163;48.818;8.976;2023-09-07T11:05:08;34.30;99.90
15937;DHT22;9163;48.818;8.976;2023-09-07T11:07:36;34.50;99.90
15937;DHT22;9163;48.818;8.976;2023-09-07T11:10:06;34.70;99.90
15937;DHT22;9163;48.818;8.976;2023-09-07T11:12:38;34.70;99.90
15937;DHT22;9163;48.818;8.976;2023-09-07T11:15:08;35.00;91.50
15937;DHT22;9163;48.818;8.976;2023-09-07T11:17:37;35.20;79.80
15937;DHT22;9163;48.818;8.976;2023-09-07T11:20:07;35.00;47.80
15937;DHT22;9163;48.818;8.976;2023-09-07T11:22:36;35.10;8.50
15937;DHT22;9163;48.818;8.976;2023-09-07T11:25:05;35.30;41.90
15937;DHT22;9163;48.818;8.976;2023-09-07T11:27:32;35.00;1.00
15937;DHT22;9163;48.818;8.976;2023-09-07T11:30:01;34.50;1.00
15937;DHT22;9163;48.818;8.976;2023-09-07T11:32:34;34.90;1.00
15937;DHT22;9163;48.818;8.976;2023-09-07T11:35:01;33.70;1.00
15937;DHT22;9163;48.818;8.976;2023-09-07T11:37:29;34.10;1.00
15937;DHT22;9163;48.818;8.976;2023-09-07T11:39:56;34.70;1.00
15937;DHT22;9163;48.818;8.976;2023-09-07T11:42:23;35.00;1.00
15937;DHT22;9163;48.818;8.976;2023-09-07T11:44:50;35.10;1.00
15937;DHT22;9163;48.818;8.976;2023-09-07T11:47:19;35.60;1.00
15937;DHT22;9163;48.818;8.976;2023-09-07T11:49:46;36.10;1.00
15937;DHT22;9163;48.818;8.976;2023-09-07T11:52:14;36.10;1.00
15937;DHT22;9163;48.818;8.976;2023-09-07T11:54:42;36.30;1.00
15937;DHT22;9163;48.818;8.976;2023-09-07T11:57:09;36.70;1.00
15937;DHT22;9163;48.818;8.976;2023-09-07T11:59:36;36.80;1.00
15937;DHT22;9163;48.818;8.976;2023-09-07T12:02:04;37.00;1.00
15937;DHT22;9163;48.818;8.976;2023-09-07T12:04:33;37.30;1.00
15937;DHT22;9163;48.818;8.976;2023-09-07T12:07:03;37.40;1.00
15937;DHT22;9163;48.818;8.976;2023-09-07T12:09:31;37.20;1.00
15937;DHT22;9163;48.818;8.976;2023-09-07T12:11:58;37.50;1.00
15937;DHT22;9163;48.818;8.976;2023-09-07T12:14:25;37.60;1.00
15937;DHT22;9163;48.818;8.976;2023-09-07T12:16:52;37.80;1.00
15937;DHT22;9163;48.818;8.976;2023-09-07T12:19:19;37.70;1.00
15937;DHT22;9163;48.818;8.976;2023-09-07T12:21:48;37.70;1.00
15937;DHT22;9163;48.818;8.976;2023-09-07T12:24:15;38.20;1.00
15937;DHT22;9163;48.818;8.976;2023-09-07T12:26:42;38.30;1.00
15937;DHT22;9163;48.818;8.976;2023-09-07T12:29:10;38.40;1.00
15937;DHT22;9163;48.818;8.976;2023-09-07T12:31:37;38.50;1.00
15937;DHT22;9163;48.818;8.976;2023-09-07T12:34:05;38.60;1.00
15937;DHT22;9163;48.818;8.976;2023-09-07T12:36:34;38.70;1.00
15937;DHT22;9163;48.818;8.976;2023-09-07T12:39:03;38.30;1.00
15937;DHT22;9163;48.818;8.976;2023-09-07T12:41:31;37.90;1.00
15937;DHT22;9163;48.818;8.976;2023-09-07T12:43:59;38.20;1.00
15937;DHT22;9163;48.818;8.976;2023-09-07T12:46:26;38.10;1.00
15937;DHT22;9163;48.818;8.976;2023-09-07T12:48:53;37.20;1.00
15937;DHT22;9163;48.818;8.976;2023-09-07T12:51:20;36.70;1.00
15937;DHT22;9163;48.818;8.976;2023-09-07T12:53:48;35.80;1.00
15937;DHT22;9163;48.818;8.976;2023-09-07T12:56:16;36.40;1.00
15937;DHT22;9163;48.818;8.976;2023-09-07T12:58:44;35.70;1.00
15937;DHT22;9163;48.818;8.976;2023-09-07T13:01:11;36.40;1.00
15937;DHT22;9163;48.818;8.976;2023-09-07T13:03:41;36.60;1.00
15937;DHT22;9163;48.818;8.976;2023-09-07T13:06:08;36.90;1.00
15937;DHT22;9163;48.818;8.976;2023-09-07T13:08:35;37.30;1.00
15937;DHT22;9163;48.818;8.976;2023-09-07T13:11:03;37.40;1.00
15937;DHT22;9163;48.818;8.976;2023-09-07T13:13:31;37.50;1.00
15937;DHT22;9163;48.818;8.976;2023-09-07T13:15:59;37.60;1.00
15937;DHT22;9163;48.818;8.976;2023-09-07T13:18:27;37.70;1.00
15937;DHT22;9163;48.818;8.976;2023-09-07T13:20:54;37.50;1.00
15937;DHT22;9163;48.818;8.976;2023-09-07T13:23:25;37.90;1.00
15937;DHT22;9163;48.818;8.976;2023-09-07T13:25:52;37.70;1.00
15937;DHT22;9163;48.818;8.976;2023-09-07T13:28:20;37.70;99.90
15937;DHT22;9163;48.818;8.976;2023-09-07T13:30:48;37.30;99.90
15937;DHT22;9163;48.818;8.976;2023-09-07T13:33:15;37.30;1.00
15937;DHT22;9163;48.818;8.976;2023-09-07T13:35:43;37.10;99.90
15937;DHT22;9163;48.818;8.976;2023-09-07T13:38:11;37.00;99.90
15937;DHT22;9163;48.818;8.976;2023-09-07T13:40:38;36.60;99.90
15937;DHT22;9163;48.818;8.976;2023-09-07T13:43:05;36.70;1.00
15937;DHT22;9163;48.818;8.976;2023-09-07T13:45:33;36.90;99.90
15937;DHT22;9163;48.818;8.976;2023-09-07T13:48:02;36.90;1.00
15937;DHT22;9163;48.818;8.976;2023-09-07T13:50:29;36.80;99.90
15937;DHT22;9163;48.818;8.976;2023-09-07T13:52:56;36.80;99.90
15937;DHT22;9163;48.818;8.976;2023-09-07T13:55:24;36.90;99.90
15937;DHT22;9163;48.818;8.976;2023-09-07T13:57:52;37.00;99.90
15937;DHT22;9163;48.818;8.976;2023-09-07T14:00:19;37.00;99.90
15937;DHT22;9163;48.818;8.976;2023-09-07T14:02:46;36.90;99.90
15937;DHT22;9163;48.818;8.976;2023-09-07T14:05:15;37.00;99.90
15937;DHT22;9163;48.818;8.976;2023-09-07T14:07:42;37.00;99.90
15937;DHT22;9163;48.818;8.976;2023-09-07T14:10:10;36.80;99.90
15937;DHT22;9163;48.818;8.976;2023-09-07T14:12:37;36.80;99.90
15937;DHT22;9163;48.818;8.976;2023-09-07T14:15:05;36.80;99.90
15937;DHT22;9163;48.818;8.976;2023-09-07T14:17:32;36.70;99.90
15937;DHT22;9163;48.818;8.976;2023-09-07T14:19:59;36.70;99.90
15937;DHT22;9163;48.818;8.976;2023-09-07T14:22:28;36.60;99.90
15937;DHT22;9163;48.818;8.976;2023-09-07T14:24:55;36.50;99.90
15937;DHT22;9163;48.818;8.976;2023-09-07T14:27:22;36.40;99.90
15937;DHT22;9163;48.818;8.976;2023-09-07T14:29:50;36.50;99.90
15937;DHT22;9163;48.818;8.976;2023-09-07T14:32:17;36.40;99.90
15937;DHT22;9163;48.818;8.976;2023-09-07T14:34:44;36.50;99.90
15937;DHT22;9163;48.818;8.976;2023-09-07T14:37:12;36.60;99.90
15937;DHT22;9163;48.818;8.976;2023-09-07T14:39:40;36.40;99.90
15937;DHT22;9163;48.818;8.976;2023-09-07T14:42:13;36.20;99.90
15937;DHT22;9163;48.818;8.976;2023-09-07T14:44:42;36.00;99.90
15937;DHT22;9163;48.818;8.976;2023-09-07T14:47:10;35.80;99.90
15937;DHT22;9163;48.818;8.976;2023-09-07T14:49:37;35.70;99.90
15937;DHT22;9163;48.818;8.976;2023-09-07T14:52:05;35.40;99.90
15937;DHT22;9163;48.818;8.976;2023-09-07T14:54:32;35.50;99.90
15937;DHT22;9163;48.818;8.976;2023-09-07T14:57:01;35.60;99.90
15937;DHT22;9163;48.818;8.976;2023-09-07T14:59:29;35.50;99.90
15937;DHT22;9163;48.818;8.976;2023-09-07T15:01:56;35.40;99.90
15937;DHT22;9163;48.818;8.976;2023-09-07T15:04:23;35.20;99.90
15937;DHT22;9163;48.818;8.976;2023-09-07T15:06:50;35.20;99.90
15937;DHT22;9163;48.818;8.976;2023-09-07T15:09:17;35.20;99.90
15937;DHT22;9163;48.818;8.976;2023-09-07T15:11:45;35.20;99.90
15937;DHT22;9163;48.818;8.976;2023-09-07T15:14:13;34.90;99.90
15937;DHT22;9163;48.818;8.976;2023-09-07T15:16:41;34.80;99.90
15937;DHT22;9163;48.818;8.976;2023-09-07T15:19:08;34.60;99.90
15937;DHT22;9163;48.818;8.976;2023-09-07T15:21:35;34.60;99.90
15937;DHT22;9163;48.818;8.976;2023-09-07T15:24:03;34.60;99.90
15937;DHT22;9163;48.818;8.976;2023-09-07T15:26:40;34.50;99.90
15937;DHT22;9163;48.818;8.976;2023-09-07T15:29:07;34.20;99.90
15937;DHT22;9163;48.818;8.976;2023-09-07T15:31:36;34.20;99.90
15937;DHT22;9163;48.818;8.976;2023-09-07T15:34:03;34.10;99.90
15937;DHT22;9163;48.818;8.976;2023-09-07T15:36:31;33.80;95.70
15937;DHT22;9163;48.818;8.976;2023-09-07T15:38:59;33.90;99.90
15937;DHT22;9163;48.818;8.976;2023-09-07T15:41:26;33.70;99.90
15937;DHT22;9163;48.818;8.976;2023-09-07T15:43:54;33.70;99.90
15937;DHT22;9163;48.818;8.976;2023-09-07T15:46:22;33.50;99.90
15937;DHT22;9163;48.818;8.976;2023-09-07T15:48:52;33.30;99.90
15937;DHT22;9163;48.818;8.976;2023-09-07T15:51:20;32.80;99.90
15937;DHT22;9163;48.818;8.976;2023-09-07T15:53:47;32.80;99.90
15937;DHT22;9163;48.818;8.976;2023-09-07T15:56:15;32.80;99.90